sensor_id;sensor_type;location;lat;lon;timestamp;pressure;altitude;pressure_sealevel;temperature;humidity
55066;BME280;40964;42.114;24.220;2023-04-05T00:00:57;97150.00;;;4.87;76.50
55066;BME280;40964;42.114;24.220;2023-04-05T00:03:23;97145.78;;;4.86;76.08
55066;BME280;40964;42.114;24.220;2023-04-05T00:05:50;97145.97;;;4.78;76.18
55066;BME280;40964;42.114;24.220;2023-04-05T00:08:18;97141.19;;;4.88;76.37
55066;BME280;40964;42.114;24.220;2023-04-05T00:10:51;97150.38;;;4.84;76.27
55066;BME280;40964;42.114;24.220;2023-04-05T00:13:17;97145.78;;;4.86;76.63
55066;BME280;40964;42.114;24.220;2023-04-05T00:15:43;97156.97;;;4.80;76.20
55066;BME280;40964;42.114;24.220;2023-04-05T00:18:09;97148.75;;;4.83;76.96
55066;BME280;40964;42.114;24.220;2023-04-05T00:20:54;97144.78;;;4.87;76.51
55066;BME280;40964;42.114;24.220;2023-04-05T00:23:20;97152.19;;;4.90;77.09
55066;BME280;40964;42.114;24.220;2023-04-05T00:25:47;97151.00;;;4.93;75.63
55066;BME280;40964;42.114;24.220;2023-04-05T00:28:12;97147.19;;;4.89;78.59
55066;BME280;40964;42.114;24.220;2023-04-05T00:30:38;97157.81;;;4.94;77.19
55066;BME280;40964;42.114;24.220;2023-04-05T00:33:04;97147.38;;;4.94;76.09
55066;BME280;40964;42.114;24.220;2023-04-05T00:35:30;97156.63;;;4.96;76.60
55066;BME280;40964;42.114;24.220;2023-04-05T00:37:56;97152.84;;;5.05;77.64
55066;BME280;40964;42.114;24.220;2023-04-05T00:40:24;97153.03;;;5.10;75.93
55066;BME280;40964;42.114;24.220;2023-04-05T00:42:50;97153.28;;;5.16;75.34
55066;BME280;40964;42.114;24.220;2023-04-05T00:45:15;97154.66;;;5.11;76.22
55066;BME280;40964;42.114;24.220;2023-04-05T00:47:41;97159.09;;;5.18;77.17
55066;BME280;40964;42.114;24.220;2023-04-05T00:50:08;97155.25;;;5.20;77.66
55066;BME280;40964;42.114;24.220;2023-04-05T00:52:34;97165.28;;;5.17;80.06
55066;BME280;40964;42.114;24.220;2023-04-05T00:55:03;97162.84;;;5.02;83.69
55066;BME280;40964;42.114;24.220;2023-04-05T00:57:30;97122.47;;;4.71;82.21
55066;BME280;40964;42.114;24.220;2023-04-05T01:00:00;97160.25;;;4.95;78.83
55066;BME280;40964;42.114;24.220;2023-04-05T01:02:33;97161.66;;;4.98;77.08
55066;BME280;40964;42.114;24.220;2023-04-05T01:05:50;97161.00;;;4.89;78.61
55066;BME280;40964;42.114;24.220;2023-04-05T01:08:21;97166.63;;;4.86;79.46
55066;BME280;40964;42.114;24.220;2023-04-05T01:10:58;97177.44;;;4.90;80.22
55066;BME280;40964;42.114;24.220;2023-04-05T01:13:24;97162.78;;;4.82;79.94
55066;BME280;40964;42.114;24.220;2023-04-05T01:15:50;97165.78;;;4.79;76.98
55066;BME280;40964;42.114;24.220;2023-04-05T01:18:16;97169.03;;;4.88;78.20
55066;BME280;40964;42.114;24.220;2023-04-05T01:21:24;97167.81;;;4.90;80.67
55066;BME280;40964;42.114;24.220;2023-04-05T01:31:59;97141.38;;;4.32;85.19
55066;BME280;40964;42.114;24.220;2023-04-05T01:34:39;97180.34;;;4.60;85.20
55066;BME280;40964;42.114;24.220;2023-04-05T01:37:11;97185.13;;;4.56;84.68
55066;BME280;40964;42.114;24.220;2023-04-05T01:39:36;97175.00;;;4.40;86.54
55066;BME280;40964;42.114;24.220;2023-04-05T01:42:03;97167.59;;;4.37;86.18
55066;BME280;40964;42.114;24.220;2023-04-05T01:44:28;97191.69;;;4.46;85.81
55066;BME280;40964;42.114;24.220;2023-04-05T01:46:55;97185.03;;;4.37;87.59
55066;BME280;40964;42.114;24.220;2023-04-05T01:49:21;97192.84;;;4.37;86.64
55066;BME280;40964;42.114;24.220;2023-04-05T01:51:47;97187.41;;;4.32;87.58
55066;BME280;40964;42.114;24.220;2023-04-05T01:54:12;97189.38;;;4.23;86.51
55066;BME280;40964;42.114;24.220;2023-04-05T01:56:38;97194.16;;;4.26;86.29
55066;BME280;40964;42.114;24.220;2023-04-05T01:59:03;97193.94;;;4.21;87.77
55066;BME280;40964;42.114;24.220;2023-04-05T02:01:28;97201.31;;;4.17;88.46
55066;BME280;40964;42.114;24.220;2023-04-05T02:03:54;97201.22;;;4.04;88.37
55066;BME280;40964;42.114;24.220;2023-04-05T02:06:21;97197.41;;;4.00;89.65
55066;BME280;40964;42.114;24.220;2023-04-05T02:08:46;97194.13;;;3.91;91.15
55066;BME280;40964;42.114;24.220;2023-04-05T02:11:12;97187.38;;;3.97;91.37
55066;BME280;40964;42.114;24.220;2023-04-05T02:13:37;97187.84;;;4.07;91.80
55066;BME280;40964;42.114;24.220;2023-04-05T02:16:03;97189.88;;;4.12;90.94
55066;BME280;40964;42.114;24.220;2023-04-05T02:18:28;97194.84;;;4.07;91.78
55066;BME280;40964;42.114;24.220;2023-04-05T02:21:04;97191.34;;;3.93;92.43
55066;BME280;40964;42.114;24.220;2023-04-05T02:23:30;97200.59;;;3.95;91.44
55066;BME280;40964;42.114;24.220;2023-04-05T02:25:57;97211.97;;;3.94;92.20
55066;BME280;40964;42.114;24.220;2023-04-05T02:28:23;97206.09;;;3.86;92.92
55066;BME280;40964;42.114;24.220;2023-04-05T02:30:48;97208.28;;;3.82;92.27
55066;BME280;40964;42.114;24.220;2023-04-05T02:33:14;97207.84;;;3.79;88.49
55066;BME280;40964;42.114;24.220;2023-04-05T02:35:39;97200.94;;;3.92;85.67
55066;BME280;40964;42.114;24.220;2023-04-05T02:38:05;97197.59;;;3.98;84.88
55066;BME280;40964;42.114;24.220;2023-04-05T02:40:31;97199.25;;;4.06;85.18
55066;BME280;40964;42.114;24.220;2023-04-05T02:42:57;97206.53;;;4.17;84.37
55066;BME280;40964;42.114;24.220;2023-04-05T02:45:22;97211.97;;;4.22;85.01
55066;BME280;40964;42.114;24.220;2023-04-05T02:47:48;97208.53;;;4.22;86.66
55066;BME280;40964;42.114;24.220;2023-04-05T02:50:14;97209.66;;;4.34;88.14
55066;BME280;40964;42.114;24.220;2023-04-05T02:52:45;97211.81;;;4.31;88.51
55066;BME280;40964;42.114;24.220;2023-04-05T02:55:10;97208.66;;;4.35;89.27
55066;BME280;40964;42.114;24.220;2023-04-05T02:57:36;97213.13;;;4.48;89.43
55066;BME280;40964;42.114;24.220;2023-04-05T03:00:02;97203.34;;;4.50;89.32
55066;BME280;40964;42.114;24.220;2023-04-05T03:02:29;97207.53;;;4.51;90.34
55066;BME280;40964;42.114;24.220;2023-04-05T03:04:55;97214.41;;;4.59;89.93
55066;BME280;40964;42.114;24.220;2023-04-05T03:07:21;97200.34;;;4.53;90.97
55066;BME280;40964;42.114;24.220;2023-04-05T03:09:46;97210.63;;;4.68;88.53
55066;BME280;40964;42.114;24.220;2023-04-05T03:12:12;97206.22;;;4.68;88.73
55066;BME280;40964;42.114;24.220;2023-04-05T03:14:38;97200.19;;;4.61;89.26
55066;BME280;40964;42.114;24.220;2023-04-05T03:17:04;97200.38;;;4.66;89.00
55066;BME280;40964;42.114;24.220;2023-04-05T03:19:30;97226.59;;;4.58;89.20
55066;BME280;40964;42.114;24.220;2023-04-05T03:21:56;97228.31;;;4.44;90.94
55066;BME280;40964;42.114;24.220;2023-04-05T03:24:22;97227.13;;;4.47;89.56
55066;BME280;40964;42.114;24.220;2023-04-05T03:29:25;97230.38;;;4.55;87.68
55066;BME280;40964;42.114;24.220;2023-04-05T03:31:50;97200.09;;;4.48;89.57
55066;BME280;40964;42.114;24.220;2023-04-05T03:34:16;97219.91;;;4.49;89.64
55066;BME280;40964;42.114;24.220;2023-04-05T03:36:41;97221.72;;;4.48;88.27
55066;BME280;40964;42.114;24.220;2023-04-05T03:39:11;97219.41;;;4.60;86.12
55066;BME280;40964;42.114;24.220;2023-04-05T03:41:40;97216.00;;;4.66;85.93
55066;BME280;40964;42.114;24.220;2023-04-05T03:44:07;97212.41;;;4.61;88.10
55066;BME280;40964;42.114;24.220;2023-04-05T03:46:32;97222.81;;;4.67;88.75
55066;BME280;40964;42.114;24.220;2023-04-05T03:48:59;97220.69;;;4.77;89.06
55066;BME280;40964;42.114;24.220;2023-04-05T03:51:25;97228.66;;;4.69;88.64
55066;BME280;40964;42.114;24.220;2023-04-05T03:53:51;97229.66;;;4.68;88.20
55066;BME280;40964;42.114;24.220;2023-04-05T03:56:17;97218.84;;;4.71;88.00
55066;BME280;40964;42.114;24.220;2023-04-05T03:58:43;97227.50;;;4.78;88.33
55066;BME280;40964;42.114;24.220;2023-04-05T04:01:09;97229.16;;;4.86;88.46
55066;BME280;40964;42.114;24.220;2023-04-05T04:03:35;97228.16;;;4.87;89.31
55066;BME280;40964;42.114;24.220;2023-04-05T04:06:02;97238.94;;;4.84;87.46
55066;BME280;40964;42.114;24.220;2023-04-05T04:08:28;97240.97;;;4.89;87.52
55066;BME280;40964;42.114;24.220;2023-04-05T04:10:53;97254.22;;;4.94;88.06
55066;BME280;40964;42.114;24.220;2023-04-05T04:13:18;97236.19;;;4.92;88.38
55066;BME280;40964;42.114;24.220;2023-04-05T04:15:44;97241.81;;;4.96;89.82
55066;BME280;40964;42.114;24.220;2023-04-05T04:18:11;97242.06;;;4.66;88.49
55066;BME280;40964;42.114;24.220;2023-04-05T04:20:37;97250.47;;;4.62;81.01
55066;BME280;40964;42.114;24.220;2023-04-05T04:23:03;97244.50;;;4.40;81.55
55066;BME280;40964;42.114;24.220;2023-04-05T04:25:29;97257.63;;;4.25;78.88
55066;BME280;40964;42.114;24.220;2023-04-05T04:27:55;97247.13;;;4.12;80.30
55066;BME280;40964;42.114;24.220;2023-04-05T04:30:20;97271.53;;;4.11;82.44
55066;BME280;40964;42.114;24.220;2023-04-05T04:32:47;97264.50;;;4.05;81.03
55066;BME280;40964;42.114;24.220;2023-04-05T04:35:24;97263.97;;;3.94;81.09
55066;BME280;40964;42.114;24.220;2023-04-05T04:37:52;97262.94;;;3.89;80.64
55066;BME280;40964;42.114;24.220;2023-04-05T04:40:19;97266.72;;;3.86;82.31
55066;BME280;40964;42.114;24.220;2023-04-05T04:42:45;97267.53;;;3.87;82.05
55066;BME280;40964;42.114;24.220;2023-04-05T04:45:12;97257.25;;;3.79;82.64
55066;BME280;40964;42.114;24.220;2023-04-05T04:47:44;97283.56;;;3.90;82.35
55066;BME280;40964;42.114;24.220;2023-04-05T04:50:12;97279.59;;;3.94;81.50
55066;BME280;40964;42.114;24.220;2023-04-05T04:52:38;97275.03;;;3.96;81.16
55066;BME280;40964;42.114;24.220;2023-04-05T04:55:05;97267.59;;;3.93;80.38
55066;BME280;40964;42.114;24.220;2023-04-05T04:57:31;97278.25;;;3.98;81.04
55066;BME280;40964;42.114;24.220;2023-04-05T04:59:56;97272.47;;;4.03;81.32
55066;BME280;40964;42.114;24.220;2023-04-05T05:02:25;97280.53;;;4.08;80.41
55066;BME280;40964;42.114;24.220;2023-04-05T05:04:51;97264.50;;;4.05;79.36
55066;BME280;40964;42.114;24.220;2023-04-05T05:07:17;97276.66;;;4.25;79.70
55066;BME280;40964;42.114;24.220;2023-04-05T05:09:43;97269.84;;;4.24;78.62
55066;BME280;40964;42.114;24.220;2023-04-05T05:12:09;97269.66;;;4.26;78.99
55066;BME280;40964;42.114;24.220;2023-04-05T05:14:34;97283.66;;;4.25;78.03
55066;BME280;40964;42.114;24.220;2023-04-05T05:17:00;97292.34;;;4.32;78.35
55066;BME280;40964;42.114;24.220;2023-04-05T05:19:25;97292.13;;;4.34;77.44
55066;BME280;40964;42.114;24.220;2023-04-05T05:21:51;97299.00;;;4.41;78.94
55066;BME280;40964;42.114;24.220;2023-04-05T05:24:18;97297.81;;;4.44;78.17
55066;BME280;40964;42.114;24.220;2023-04-05T05:26:44;97298.81;;;4.43;78.33
55066;BME280;40964;42.114;24.220;2023-04-05T05:29:09;97312.25;;;4.46;78.33
55066;BME280;40964;42.114;24.220;2023-04-05T05:31:35;97306.47;;;4.51;76.21
55066;BME280;40964;42.114;24.220;2023-04-05T05:34:01;97295.25;;;4.50;76.47
55066;BME280;40964;42.114;24.220;2023-04-05T05:36:26;97322.78;;;4.66;74.83
55066;BME280;40964;42.114;24.220;2023-04-05T05:38:52;97321.63;;;4.69;74.00
55066;BME280;40964;42.114;24.220;2023-04-05T05:41:18;97317.03;;;4.71;75.75
55066;BME280;40964;42.114;24.220;2023-04-05T05:43:45;97318.03;;;4.70;75.57
55066;BME280;40964;42.114;24.220;2023-04-05T05:46:11;97313.56;;;4.64;75.56
55066;BME280;40964;42.114;24.220;2023-04-05T05:48:36;97319.03;;;4.69;77.04
55066;BME280;40964;42.114;24.220;2023-04-05T05:51:02;97323.84;;;4.72;77.05
55066;BME280;40964;42.114;24.220;2023-04-05T05:53:27;97321.63;;;4.69;74.86
55066;BME280;40964;42.114;24.220;2023-04-05T05:55:52;97311.34;;;4.61;76.65
55066;BME280;40964;42.114;24.220;2023-04-05T05:58:18;97317.78;;;4.65;76.50
55066;BME280;40964;42.114;24.220;2023-04-05T06:00:43;97321.16;;;4.59;77.17
55066;BME280;40964;42.114;24.220;2023-04-05T06:03:09;97327.19;;;4.66;76.00
55066;BME280;40964;42.114;24.220;2023-04-05T06:05:35;97320.34;;;4.58;76.60
55066;BME280;40964;42.114;24.220;2023-04-05T06:08:01;97321.16;;;4.59;75.46
55066;BME280;40964;42.114;24.220;2023-04-05T06:10:28;97321.53;;;4.55;75.91
55066;BME280;40964;42.114;24.220;2023-04-05T06:12:54;97317.59;;;4.66;76.33
55066;BME280;40964;42.114;24.220;2023-04-05T06:15:20;97323.25;;;4.70;77.26
55066;BME280;40964;42.114;24.220;2023-04-05T06:17:45;97330.44;;;4.68;76.23
55066;BME280;40964;42.114;24.220;2023-04-05T06:20:11;97341.47;;;4.70;76.32
55066;BME280;40964;42.114;24.220;2023-04-05T06:22:38;97342.69;;;4.74;76.61
55066;BME280;40964;42.114;24.220;2023-04-05T06:25:06;97339.72;;;4.77;74.67
55066;BME280;40964;42.114;24.220;2023-04-05T06:27:31;97307.75;;;4.62;76.28
55066;BME280;40964;42.114;24.220;2023-04-05T06:29:58;97353.56;;;4.84;72.98
55066;BME280;40964;42.114;24.220;2023-04-05T06:32:24;97346.56;;;4.84;74.34
55066;BME280;40964;42.114;24.220;2023-04-05T06:34:50;97355.56;;;4.82;72.64
55066;BME280;40964;42.114;24.220;2023-04-05T06:37:15;97350.34;;;4.82;73.68
55066;BME280;40964;42.114;24.220;2023-04-05T06:39:40;97360.59;;;4.83;74.11
55066;BME280;40964;42.114;24.220;2023-04-05T06:42:06;97356.97;;;4.84;73.79
55066;BME280;40964;42.114;24.220;2023-04-05T06:44:31;97371.84;;;4.91;72.55
55066;BME280;40964;42.114;24.220;2023-04-05T06:46:57;97362.09;;;4.99;74.33
55066;BME280;40964;42.114;24.220;2023-04-05T06:49:22;97374.94;;;5.01;73.36
55066;BME280;40964;42.114;24.220;2023-04-05T06:51:48;97356.06;;;4.99;73.03
55066;BME280;40964;42.114;24.220;2023-04-05T06:54:14;97373.63;;;5.18;72.44
55066;BME280;40964;42.114;24.220;2023-04-05T06:56:39;97388.34;;;5.32;72.24
55066;BME280;40964;42.114;24.220;2023-04-05T06:59:05;97382.13;;;5.33;71.08
55066;BME280;40964;42.114;24.220;2023-04-05T07:01:30;97384.78;;;5.47;69.89
55066;BME280;40964;42.114;24.220;2023-04-05T07:03:58;97398.09;;;5.58;70.15
55066;BME280;40964;42.114;24.220;2023-04-05T07:06:24;97403.38;;;5.72;71.07
55066;BME280;40964;42.114;24.220;2023-04-05T07:08:49;97399.00;;;5.85;70.67
55066;BME280;40964;42.114;24.220;2023-04-05T07:11:15;97395.63;;;5.91;69.18
55066;BME280;40964;42.114;24.220;2023-04-05T07:13:40;97410.63;;;5.83;69.60
55066;BME280;40964;42.114;24.220;2023-04-05T07:16:06;97402.31;;;6.07;68.40
55066;BME280;40964;42.114;24.220;2023-04-05T07:18:31;97403.31;;;6.19;69.64
55066;BME280;40964;42.114;24.220;2023-04-05T07:20:58;97411.59;;;6.43;70.00
55066;BME280;40964;42.114;24.220;2023-04-05T07:23:28;97407.41;;;6.48;67.59
55066;BME280;40964;42.114;24.220;2023-04-05T07:25:54;97427.69;;;6.46;66.55
55066;BME280;40964;42.114;24.220;2023-04-05T07:28:23;97409.63;;;6.58;67.80
55066;BME280;40964;42.114;24.220;2023-04-05T07:30:48;97407.59;;;6.73;66.97
55066;BME280;40964;42.114;24.220;2023-04-05T07:33:14;97416.25;;;6.87;65.32
55066;BME280;40964;42.114;24.220;2023-04-05T07:35:40;97414.03;;;7.04;68.25
55066;BME280;40964;42.114;24.220;2023-04-05T07:38:07;97415.03;;;7.03;64.10
55066;BME280;40964;42.114;24.220;2023-04-05T07:40:33;97425.72;;;6.95;63.72
55066;BME280;40964;42.114;24.220;2023-04-05T07:42:59;97427.09;;;6.97;64.55
55066;BME280;40964;42.114;24.220;2023-04-05T07:45:24;97423.31;;;6.93;63.46
55066;BME280;40964;42.114;24.220;2023-04-05T07:47:50;97430.50;;;6.91;63.43
55066;BME280;40964;42.114;24.220;2023-04-05T07:50:15;97431.13;;;6.87;63.34
55066;BME280;40964;42.114;24.220;2023-04-05T07:52:41;97435.94;;;6.90;64.84
55066;BME280;40964;42.114;24.220;2023-04-05T07:55:08;97437.16;;;6.74;64.59
55066;BME280;40964;42.114;24.220;2023-04-05T07:57:33;97408.19;;;6.42;65.04
55066;BME280;40964;42.114;24.220;2023-04-05T07:59:59;97443.19;;;6.48;64.07
55066;BME280;40964;42.114;24.220;2023-04-05T08:02:25;97442.56;;;6.52;67.14
55066;BME280;40964;42.114;24.220;2023-04-05T08:04:50;97444.53;;;6.37;64.00
55066;BME280;40964;42.114;24.220;2023-04-05T08:07:16;97439.53;;;6.42;67.73
55066;BME280;40964;42.114;24.220;2023-04-05T08:09:41;97430.25;;;6.13;65.25
55066;BME280;40964;42.114;24.220;2023-04-05T08:12:07;97449.09;;;6.09;65.41
55066;BME280;40964;42.114;24.220;2023-04-05T08:14:32;97450.69;;;6.10;67.31
55066;BME280;40964;42.114;24.220;2023-04-05T08:16:58;97443.63;;;5.97;66.85
55066;BME280;40964;42.114;24.220;2023-04-05T08:19:23;97451.50;;;6.04;66.17
55066;BME280;40964;42.114;24.220;2023-04-05T08:21:49;97459.50;;;5.95;65.31
55066;BME280;40964;42.114;24.220;2023-04-05T08:24:14;97458.09;;;6.00;66.32
55066;BME280;40964;42.114;24.220;2023-04-05T08:26:40;97458.53;;;6.03;68.60
55066;BME280;40964;42.114;24.220;2023-04-05T08:29:06;97450.50;;;6.05;67.93
55066;BME280;40964;42.114;24.220;2023-04-05T08:31:31;97458.53;;;6.10;67.42
55066;BME280;40964;42.114;24.220;2023-04-05T08:33:58;97461.94;;;6.04;66.54
55066;BME280;40964;42.114;24.220;2023-04-05T08:36:23;97468.16;;;6.09;66.17
55066;BME280;40964;42.114;24.220;2023-04-05T08:38:50;97461.91;;;5.97;68.25
55066;BME280;40964;42.114;24.220;2023-04-05T08:41:20;97467.78;;;6.06;66.59
55066;BME280;40964;42.114;24.220;2023-04-05T08:46:23;97461.91;;;5.97;67.31
55066;BME280;40964;42.114;24.220;2023-04-05T08:48:49;97468.16;;;6.03;65.56
55066;BME280;40964;42.114;24.220;2023-04-05T08:51:22;97481.38;;;6.01;67.23
55066;BME280;40964;42.114;24.220;2023-04-05T08:53:48;97470.56;;;6.04;66.08
55066;BME280;40964;42.114;24.220;2023-04-05T08:56:39;97480.84;;;6.12;67.68
55066;BME280;40964;42.114;24.220;2023-04-05T08:59:08;97472.22;;;6.18;67.26
55066;BME280;40964;42.114;24.220;2023-04-05T09:01:42;97470.47;;;6.32;67.47
55066;BME280;40964;42.114;24.220;2023-04-05T09:04:21;97472.69;;;6.42;68.79
55066;BME280;40964;42.114;24.220;2023-04-05T09:06:49;97476.13;;;6.55;67.50
55066;BME280;40964;42.114;24.220;2023-04-05T09:09:15;97480.38;;;6.57;68.66
55066;BME280;40964;42.114;24.220;2023-04-05T09:11:42;97481.75;;;6.39;67.71
55066;BME280;40964;42.114;24.220;2023-04-05T09:14:08;97480.72;;;6.47;66.05
55066;BME280;40964;42.114;24.220;2023-04-05T09:16:40;97488.31;;;6.29;66.94
55066;BME280;40964;42.114;24.220;2023-04-05T09:19:07;97480.91;;;6.32;68.12
55066;BME280;40964;42.114;24.220;2023-04-05T09:21:58;97488.16;;;6.43;67.99
55066;BME280;40964;42.114;24.220;2023-04-05T09:24:42;97483.94;;;6.42;66.98
55066;BME280;40964;42.114;24.220;2023-04-05T09:27:08;97493.34;;;6.37;69.01
55066;BME280;40964;42.114;24.220;2023-04-05T09:29:35;97474.25;;;6.23;67.61
55066;BME280;40964;42.114;24.220;2023-04-05T09:32:04;97492.16;;;6.33;67.23
55066;BME280;40964;42.114;24.220;2023-04-05T09:34:31;97492.56;;;6.36;67.20
55066;BME280;40964;42.114;24.220;2023-04-05T09:36:58;97497.97;;;6.35;67.93
55066;BME280;40964;42.114;24.220;2023-04-05T09:39:29;97494.41;;;6.49;67.30
55066;BME280;40964;42.114;24.220;2023-04-05T09:44:47;97494.22;;;6.64;66.62
55066;BME280;40964;42.114;24.220;2023-04-05T09:47:15;97492.25;;;6.66;65.60
55066;BME280;40964;42.114;24.220;2023-04-05T09:49:41;97497.88;;;6.76;65.52
55066;BME280;40964;42.114;24.220;2023-04-05T09:52:24;97499.50;;;6.77;64.67
55066;BME280;40964;42.114;24.220;2023-04-05T09:54:52;97488.00;;;6.71;66.21
55066;BME280;40964;42.114;24.220;2023-04-05T09:57:18;97491.84;;;6.75;68.15
55066;BME280;40964;42.114;24.220;2023-04-05T09:59:45;97499.50;;;6.90;66.19
55066;BME280;40964;42.114;24.220;2023-04-05T10:02:11;97491.88;;;6.95;66.64
55066;BME280;40964;42.114;24.220;2023-04-05T10:04:41;97490.84;;;7.16;67.52
55066;BME280;40964;42.114;24.220;2023-04-05T10:07:11;97494.28;;;7.10;65.70
55066;BME280;40964;42.114;24.220;2023-04-05T10:09:44;97500.91;;;6.99;70.15
55066;BME280;40964;42.114;24.220;2023-04-05T10:12:12;97504.53;;;6.98;72.38
55066;BME280;40964;42.114;24.220;2023-04-05T10:14:41;97503.94;;;6.96;69.99
55066;BME280;40964;42.114;24.220;2023-04-05T10:17:09;97502.91;;;6.84;69.91
55066;BME280;40964;42.114;24.220;2023-04-05T10:22:29;97492.25;;;6.66;71.07
55066;BME280;40964;42.114;24.220;2023-04-05T10:25:04;97501.06;;;6.71;73.00
55066;BME280;40964;42.114;24.220;2023-04-05T10:27:33;97499.28;;;6.92;70.92
55066;BME280;40964;42.114;24.220;2023-04-05T10:30:07;97499.69;;;6.89;69.67
55066;BME280;40964;42.114;24.220;2023-04-05T10:35:30;97501.72;;;6.87;69.22
55066;BME280;40964;42.114;24.220;2023-04-05T10:38:16;97506.09;;;6.73;72.02
55066;BME280;40964;42.114;24.220;2023-04-05T10:40:46;97500.06;;;6.72;71.73
55066;BME280;40964;42.114;24.220;2023-04-05T10:43:16;97504.13;;;6.75;71.12
55066;BME280;40964;42.114;24.220;2023-04-05T10:45:44;97501.91;;;6.92;70.85
55066;BME280;40964;42.114;24.220;2023-04-05T10:48:23;97507.75;;;7.00;71.41
55066;BME280;40964;42.114;24.220;2023-04-05T10:50:53;97494.25;;;6.77;73.20
55066;BME280;40964;42.114;24.220;2023-04-05T10:53:19;97510.75;;;6.91;70.84
55066;BME280;40964;42.114;24.220;2023-04-05T10:55:46;97504.94;;;6.95;73.53
55066;BME280;40964;42.114;24.220;2023-04-05T10:58:14;97496.88;;;7.23;73.04
55066;BME280;40964;42.114;24.220;2023-04-05T11:00:40;97508.56;;;7.14;73.51
55066;BME280;40964;42.114;24.220;2023-04-05T11:03:06;97502.50;;;7.27;71.08
55066;BME280;40964;42.114;24.220;2023-04-05T11:05:34;97508.56;;;7.21;70.68
55066;BME280;40964;42.114;24.220;2023-04-05T11:08:10;97497.09;;;7.28;70.33
55066;BME280;40964;42.114;24.220;2023-04-05T11:10:37;97502.72;;;7.12;69.96
55066;BME280;40964;42.114;24.220;2023-04-05T11:13:05;97513.59;;;6.96;68.83
55066;BME280;40964;42.114;24.220;2023-04-05T11:15:31;97506.94;;;7.06;70.27
55066;BME280;40964;42.114;24.220;2023-04-05T11:18:01;97505.75;;;7.16;68.95
55066;BME280;40964;42.114;24.220;2023-04-05T11:20:42;97502.72;;;7.12;68.70
55066;BME280;40964;42.114;24.220;2023-04-05T11:23:15;97503.91;;;7.09;67.97
55066;BME280;40964;42.114;24.220;2023-04-05T11:26:04;97505.16;;;7.20;68.72
55066;BME280;40964;42.114;24.220;2023-04-05T11:28:38;97507.97;;;7.12;67.12
55066;BME280;40964;42.114;24.220;2023-04-05T11:31:14;97499.09;;;6.93;68.30
55066;BME280;40964;42.114;24.220;2023-04-05T11:36:09;97497.28;;;7.33;66.96
55066;BME280;40964;42.114;24.220;2023-04-05T11:38:35;97495.09;;;7.37;63.58
55066;BME280;40964;42.114;24.220;2023-04-05T11:43:37;97502.50;;;7.47;63.62
55066;BME280;40964;42.114;24.220;2023-04-05T11:46:03;97503.69;;;7.51;64.09
55066;BME280;40964;42.114;24.220;2023-04-05T11:48:29;97504.28;;;7.66;63.97
55066;BME280;40964;42.114;24.220;2023-04-05T11:50:56;97509.31;;;7.61;64.94
55066;BME280;40964;42.114;24.220;2023-04-05T11:53:22;97514.97;;;7.64;66.11
55066;BME280;40964;42.114;24.220;2023-04-05T11:55:49;97513.16;;;7.65;66.51
55066;BME280;40964;42.114;24.220;2023-04-05T11:58:18;97507.28;;;7.69;64.95
55066;BME280;40964;42.114;24.220;2023-04-05T12:00:47;97504.03;;;7.81;65.49
55066;BME280;40964;42.114;24.220;2023-04-05T12:03:20;97503.03;;;7.82;66.08
55066;BME280;40964;42.114;24.220;2023-04-05T12:08:15;97503.59;;;7.90;61.62
55066;BME280;40964;42.114;24.220;2023-04-05T12:10:41;97498.78;;;7.81;61.90
55066;BME280;40964;42.114;24.220;2023-04-05T12:13:06;97498.34;;;8.04;64.43
55066;BME280;40964;42.114;24.220;2023-04-05T12:15:36;97464.19;;;7.72;62.64
55066;BME280;40964;42.114;24.220;2023-04-05T12:18:03;97501.53;;;8.06;61.84
55066;BME280;40964;42.114;24.220;2023-04-05T12:20:29;97505.50;;;8.28;60.50
55066;BME280;40964;42.114;24.220;2023-04-05T12:22:55;97512.34;;;8.36;61.18
55066;BME280;40964;42.114;24.220;2023-04-05T12:25:21;97508.25;;;8.46;62.06
55066;BME280;40964;42.114;24.220;2023-04-05T12:30:23;97497.63;;;8.73;60.76
55066;BME280;40964;42.114;24.220;2023-04-05T12:32:52;97491.97;;;9.01;60.42
55066;BME280;40964;42.114;24.220;2023-04-05T12:35:23;97490.03;;;8.90;58.52
55066;BME280;40964;42.114;24.220;2023-04-05T12:37:50;97481.03;;;8.79;58.42
55066;BME280;40964;42.114;24.220;2023-04-05T12:40:22;97485.44;;;8.85;59.37
55066;BME280;40964;42.114;24.220;2023-04-05T12:42:48;97488.16;;;8.97;58.60
55066;BME280;40964;42.114;24.220;2023-04-05T12:45:14;97490.47;;;9.12;58.60
55066;BME280;40964;42.114;24.220;2023-04-05T12:48:13;97493.25;;;8.92;58.19
55066;BME280;40964;42.114;24.220;2023-04-05T12:50:46;97483.38;;;8.87;60.56
55066;BME280;40964;42.114;24.220;2023-04-05T12:53:17;97493.53;;;9.08;59.73
55066;BME280;40964;42.114;24.220;2023-04-05T12:55:51;97494.16;;;9.04;56.59
55066;BME280;40964;42.114;24.220;2023-04-05T12:58:18;97495.47;;;8.88;57.04
55066;BME280;40964;42.114;24.220;2023-04-05T13:00:44;97491.75;;;8.71;59.46
55066;BME280;40964;42.114;24.220;2023-04-05T13:03:18;97494.91;;;8.86;58.12
55066;BME280;40964;42.114;24.220;2023-04-05T13:05:47;97498.25;;;8.68;57.88
55066;BME280;40964;42.114;24.220;2023-04-05T13:08:16;97493.16;;;8.35;59.30
55066;BME280;40964;42.114;24.220;2023-04-05T13:10:45;97484.44;;;8.48;61.79
55066;BME280;40964;42.114;24.220;2023-04-05T13:13:15;97499.81;;;8.31;59.54
55066;BME280;40964;42.114;24.220;2023-04-05T13:15:41;97493.22;;;8.22;60.03
55066;BME280;40964;42.114;24.220;2023-04-05T13:18:06;97501.50;;;8.19;59.45
55066;BME280;40964;42.114;24.220;2023-04-05T13:20:32;97503.34;;;8.05;60.31
55066;BME280;40964;42.114;24.220;2023-04-05T13:22:58;97497.75;;;8.02;61.40
55066;BME280;40964;42.114;24.220;2023-04-05T13:25:24;97505.41;;;7.96;60.51
55066;BME280;40964;42.114;24.220;2023-04-05T13:27:50;97498.34;;;7.97;60.45
55066;BME280;40964;42.114;24.220;2023-04-05T13:30:15;97513.22;;;8.10;62.20
55066;BME280;40964;42.114;24.220;2023-04-05T13:32:41;97509.63;;;7.97;62.81
55066;BME280;40964;42.114;24.220;2023-04-05T13:35:07;97502.63;;;7.91;61.20